sensor_id;sensor_type;location;lat;lon;timestamp;temperature;humidity
20744;DHT22;56303;52.160;-0.428;2023-03-16T00:00:17;8.20;99.90
20744;DHT22;56303;52.160;-0.428;2023-03-16T00:02:44;7.70;99.90
20744;DHT22;56303;52.160;-0.428;2023-03-16T00:05:12;8.20;99.90
20744;DHT22;56303;52.160;-0.428;2023-03-16T00:07:40;8.10;99.90
20744;DHT22;56303;52.160;-0.428;2023-03-16T00:10:09;8.10;99.90
20744;DHT22;56303;52.160;-0.428;2023-03-16T00:12:38;8.00;99.90
20744;DHT22;56303;52.160;-0.428;2023-03-16T00:15:05;8.10;99.90
20744;DHT22;56303;52.160;-0.428;2023-03-16T00:17:32;8.10;99.90
20744;DHT22;56303;52.160;-0.428;2023-03-16T00:20:00;8.20;99.90
20744;DHT22;56303;52.160;-0.428;2023-03-16T00:22:32;8.20;99.90
20744;DHT22;56303;52.160;-0.428;2023-03-16T00:25:00;8.20;99.90
20744;DHT22;56303;52.160;-0.428;2023-03-16T00:27:28;8.00;99.90
20744;DHT22;56303;52.160;-0.428;2023-03-16T00:29:54;8.20;99.90
20744;DHT22;56303;52.160;-0.428;2023-03-16T00:32:25;8.20;99.90
20744;DHT22;56303;52.160;-0.428;2023-03-16T00:34:52;8.30;99.90
20744;DHT22;56303;52.160;-0.428;2023-03-16T00:37:20;8.10;99.90
20744;DHT22;56303;52.160;-0.428;2023-03-16T00:39:49;8.10;99.90
20744;DHT22;56303;52.160;-0.428;2023-03-16T00:42:18;8.20;99.90
20744;DHT22;56303;52.160;-0.428;2023-03-16T00:44:45;8.30;99.90
20744;DHT22;56303;52.160;-0.428;2023-03-16T00:47:13;8.30;99.90
20744;DHT22;56303;52.160;-0.428;2023-03-16T00:49:42;8.10;99.90
20744;DHT22;56303;52.160;-0.428;2023-03-16T00:52:12;8.30;99.90
20744;DHT22;56303;52.160;-0.428;2023-03-16T00:54:45;8.30;99.90
20744;DHT22;56303;52.160;-0.428;2023-03-16T00:57:14;8.40;99.90
20744;DHT22;56303;52.160;-0.428;2023-03-16T00:59:44;8.60;99.90
20744;DHT22;56303;52.160;-0.428;2023-03-16T01:02:12;8.30;99.90
20744;DHT22;56303;52.160;-0.428;2023-03-16T01:04:40;8.40;99.90
20744;DHT22;56303;52.160;-0.428;2023-03-16T01:07:08;8.20;99.90
20744;DHT22;56303;52.160;-0.428;2023-03-16T01:09:36;8.30;99.90
20744;DHT22;56303;52.160;-0.428;2023-03-16T01:12:06;8.30;99.90
20744;DHT22;56303;52.160;-0.428;2023-03-16T01:14:34;8.40;99.90
20744;DHT22;56303;52.160;-0.428;2023-03-16T01:17:03;8.50;99.90
20744;DHT22;56303;52.160;-0.428;2023-03-16T01:19:31;8.50;99.90
20744;DHT22;56303;52.160;-0.428;2023-03-16T01:22:05;8.50;99.90
20744;DHT22;56303;52.160;-0.428;2023-03-16T01:24:33;8.50;99.90
20744;DHT22;56303;52.160;-0.428;2023-03-16T01:27:03;8.50;99.90
20744;DHT22;56303;52.160;-0.428;2023-03-16T01:29:31;8.60;99.90
20744;DHT22;56303;52.160;-0.428;2023-03-16T01:31:59;8.60;99.90
20744;DHT22;56303;52.160;-0.428;2023-03-16T01:34:26;8.60;99.90
20744;DHT22;56303;52.160;-0.428;2023-03-16T01:36:54;8.60;99.90
20744;DHT22;56303;52.160;-0.428;2023-03-16T01:39:21;8.80;99.90
20744;DHT22;56303;52.160;-0.428;2023-03-16T01:41:48;8.80;99.90
20744;DHT22;56303;52.160;-0.428;2023-03-16T01:44:18;8.90;99.90
20744;DHT22;56303;52.160;-0.428;2023-03-16T01:46:47;8.90;99.90
20744;DHT22;56303;52.160;-0.428;2023-03-16T01:49:25;8.90;99.90
20744;DHT22;56303;52.160;-0.428;2023-03-16T01:52:02;8.80;99.90
20744;DHT22;56303;52.160;-0.428;2023-03-16T01:54:46;8.80;99.90
20744;DHT22;56303;52.160;-0.428;2023-03-16T01:57:14;8.80;99.90
20744;DHT22;56303;52.160;-0.428;2023-03-16T01:59:55;8.70;99.90
20744;DHT22;56303;52.160;-0.428;2023-03-16T02:02:26;8.80;99.90
20744;DHT22;56303;52.160;-0.428;2023-03-16T02:05:06;8.90;99.90
20744;DHT22;56303;52.160;-0.428;2023-03-16T02:07:36;8.90;99.90
20744;DHT22;56303;52.160;-0.428;2023-03-16T02:10:07;8.90;99.90
20744;DHT22;56303;52.160;-0.428;2023-03-16T02:12:34;9.00;99.90
20744;DHT22;56303;52.160;-0.428;2023-03-16T02:15:01;9.20;99.90
20744;DHT22;56303;52.160;-0.428;2023-03-16T02:17:30;9.00;99.90
20744;DHT22;56303;52.160;-0.428;2023-03-16T02:22:47;9.20;99.90
20744;DHT22;56303;52.160;-0.428;2023-03-16T02:25:16;9.20;99.90
20744;DHT22;56303;52.160;-0.428;2023-03-16T02:30:18;9.30;99.90
20744;DHT22;56303;52.160;-0.428;2023-03-16T02:32:46;9.30;99.90
20744;DHT22;56303;52.160;-0.428;2023-03-16T02:35:14;9.30;99.90
20744;DHT22;56303;52.160;-0.428;2023-03-16T02:37:41;9.20;99.90
20744;DHT22;56303;52.160;-0.428;2023-03-16T02:42:55;9.30;99.90
20744;DHT22;56303;52.160;-0.428;2023-03-16T02:45:26;9.30;99.90
20744;DHT22;56303;52.160;-0.428;2023-03-16T02:47:55;9.40;99.90
20744;DHT22;56303;52.160;-0.428;2023-03-16T02:50:23;9.60;99.90
20744;DHT22;56303;52.160;-0.428;2023-03-16T02:52:51;9.70;99.90
20744;DHT22;56303;52.160;-0.428;2023-03-16T02:55:18;9.80;99.90
20744;DHT22;56303;52.160;-0.428;2023-03-16T02:57:44;9.50;99.90
20744;DHT22;56303;52.160;-0.428;2023-03-16T03:00:12;9.70;99.90
20744;DHT22;56303;52.160;-0.428;2023-03-16T03:02:44;9.70;99.90
20744;DHT22;56303;52.160;-0.428;2023-03-16T03:05:11;9.80;99.90
20744;DHT22;56303;52.160;-0.428;2023-03-16T03:07:38;9.70;99.90
20744;DHT22;56303;52.160;-0.428;2023-03-16T03:10:05;9.60;99.90
20744;DHT22;56303;52.160;-0.428;2023-03-16T03:12:33;9.80;99.90
20744;DHT22;56303;52.160;-0.428;2023-03-16T03:15:00;9.80;99.90
20744;DHT22;56303;52.160;-0.428;2023-03-16T03:17:27;9.50;99.90
20744;DHT22;56303;52.160;-0.428;2023-03-16T03:19:59;9.80;99.90
20744;DHT22;56303;52.160;-0.428;2023-03-16T03:22:27;9.90;99.90
20744;DHT22;56303;52.160;-0.428;2023-03-16T03:24:54;10.00;99.90
20744;DHT22;56303;52.160;-0.428;2023-03-16T03:27:21;9.90;99.90
20744;DHT22;56303;52.160;-0.428;2023-03-16T03:29:48;10.00;99.90
20744;DHT22;56303;52.160;-0.428;2023-03-16T03:32:15;10.00;99.90
20744;DHT22;56303;52.160;-0.428;2023-03-16T03:34:42;9.80;99.90
20744;DHT22;56303;52.160;-0.428;2023-03-16T03:37:08;9.70;99.90
20744;DHT22;56303;52.160;-0.428;2023-03-16T03:39:35;9.60;99.90
20744;DHT22;56303;52.160;-0.428;2023-03-16T03:42:02;9.60;99.90
20744;DHT22;56303;52.160;-0.428;2023-03-16T03:44:29;9.60;99.90
20744;DHT22;56303;52.160;-0.428;2023-03-16T03:47:00;9.80;99.90
20744;DHT22;56303;52.160;-0.428;2023-03-16T03:49:27;9.70;99.90
20744;DHT22;56303;52.160;-0.428;2023-03-16T03:51:54;9.80;99.90
20744;DHT22;56303;52.160;-0.428;2023-03-16T03:54:22;9.80;99.90
20744;DHT22;56303;52.160;-0.428;2023-03-16T03:56:48;9.80;99.90
20744;DHT22;56303;52.160;-0.428;2023-03-16T03:59:16;9.70;99.90
20744;DHT22;56303;52.160;-0.428;2023-03-16T04:01:43;9.80;99.90
20744;DHT22;56303;52.160;-0.428;2023-03-16T04:04:10;9.80;99.90
20744;DHT22;56303;52.160;-0.428;2023-03-16T04:06:37;10.00;99.90
20744;DHT22;56303;52.160;-0.428;2023-03-16T04:09:04;10.00;99.90
20744;DHT22;56303;52.160;-0.428;2023-03-16T04:11:31;9.90;99.90
20744;DHT22;56303;52.160;-0.428;2023-03-16T04:13:57;10.00;99.90
20744;DHT22;56303;52.160;-0.428;2023-03-16T04:16:25;10.20;99.90
20744;DHT22;56303;52.160;-0.428;2023-03-16T04:18:53;10.20;99.90
20744;DHT22;56303;52.160;-0.428;2023-03-16T04:21:20;10.30;99.90
20744;DHT22;56303;52.160;-0.428;2023-03-16T04:23:48;10.20;99.90
20744;DHT22;56303;52.160;-0.428;2023-03-16T04:26:15;10.20;99.90
20744;DHT22;56303;52.160;-0.428;2023-03-16T04:28:42;10.00;99.90
20744;DHT22;56303;52.160;-0.428;2023-03-16T04:31:09;10.20;99.90
20744;DHT22;56303;52.160;-0.428;2023-03-16T04:33:38;10.10;99.90
20744;DHT22;56303;52.160;-0.428;2023-03-16T04:36:06;10.20;99.90
20744;DHT22;56303;52.160;-0.428;2023-03-16T04:38:33;10.20;99.90
20744;DHT22;56303;52.160;-0.428;2023-03-16T04:41:02;10.20;99.90
20744;DHT22;56303;52.160;-0.428;2023-03-16T04:43:29;10.40;99.90
20744;DHT22;56303;52.160;-0.428;2023-03-16T04:46:00;10.50;99.90
20744;DHT22;56303;52.160;-0.428;2023-03-16T04:48:29;10.40;99.90
20744;DHT22;56303;52.160;-0.428;2023-03-16T04:50:56;10.50;99.90
20744;DHT22;56303;52.160;-0.428;2023-03-16T04:53:23;10.50;99.90
20744;DHT22;56303;52.160;-0.428;2023-03-16T04:55:50;10.50;99.90
20744;DHT22;56303;52.160;-0.428;2023-03-16T04:58:16;10.50;99.90
20744;DHT22;56303;52.160;-0.428;2023-03-16T05:00:43;10.00;99.90
20744;DHT22;56303;52.160;-0.428;2023-03-16T05:03:11;10.50;99.90
20744;DHT22;56303;52.160;-0.428;2023-03-16T05:05:38;10.60;99.90
20744;DHT22;56303;52.160;-0.428;2023-03-16T05:08:06;10.60;99.90
20744;DHT22;56303;52.160;-0.428;2023-03-16T05:10:33;10.50;99.90
20744;DHT22;56303;52.160;-0.428;2023-03-16T05:13:00;10.60;99.90
20744;DHT22;56303;52.160;-0.428;2023-03-16T05:15:27;10.40;99.90
20744;DHT22;56303;52.160;-0.428;2023-03-16T05:17:54;10.60;99.90
20744;DHT22;56303;52.160;-0.428;2023-03-16T05:20:22;10.60;99.90
20744;DHT22;56303;52.160;-0.428;2023-03-16T05:22:49;10.60;99.90
20744;DHT22;56303;52.160;-0.428;2023-03-16T05:25:17;10.60;99.90
20744;DHT22;56303;52.160;-0.428;2023-03-16T05:27:49;10.50;99.90
20744;DHT22;56303;52.160;-0.428;2023-03-16T05:30:17;10.80;99.90
20744;DHT22;56303;52.160;-0.428;2023-03-16T05:32:44;10.80;99.90
20744;DHT22;56303;52.160;-0.428;2023-03-16T05:35:12;10.70;99.90
20744;DHT22;56303;52.160;-0.428;2023-03-16T05:37:42;10.90;99.90
20744;DHT22;56303;52.160;-0.428;2023-03-16T05:40:12;10.80;99.90
20744;DHT22;56303;52.160;-0.428;2023-03-16T05:42:47;10.70;99.90
20744;DHT22;56303;52.160;-0.428;2023-03-16T05:45:15;10.90;99.90
20744;DHT22;56303;52.160;-0.428;2023-03-16T05:47:42;11.00;99.90
20744;DHT22;56303;52.160;-0.428;2023-03-16T05:50:11;10.90;99.90
20744;DHT22;56303;52.160;-0.428;2023-03-16T05:52:38;10.80;99.90
20744;DHT22;56303;52.160;-0.428;2023-03-16T05:55:07;10.80;99.90
20744;DHT22;56303;52.160;-0.428;2023-03-16T05:57:34;10.90;99.90
20744;DHT22;56303;52.160;-0.428;2023-03-16T06:00:03;10.80;99.90
20744;DHT22;56303;52.160;-0.428;2023-03-16T06:02:49;10.70;99.90
20744;DHT22;56303;52.160;-0.428;2023-03-16T06:05:18;10.50;99.90
20744;DHT22;56303;52.160;-0.428;2023-03-16T06:07:46;10.60;99.90
20744;DHT22;56303;52.160;-0.428;2023-03-16T06:10:13;10.50;99.90
20744;DHT22;56303;52.160;-0.428;2023-03-16T06:12:40;10.70;99.90
20744;DHT22;56303;52.160;-0.428;2023-03-16T06:15:08;10.70;99.90
20744;DHT22;56303;52.160;-0.428;2023-03-16T06:17:36;10.80;99.90
20744;DHT22;56303;52.160;-0.428;2023-03-16T06:20:05;10.70;99.90
20744;DHT22;56303;52.160;-0.428;2023-03-16T06:22:38;10.70;99.90
20744;DHT22;56303;52.160;-0.428;2023-03-16T06:25:05;10.50;99.90
20744;DHT22;56303;52.160;-0.428;2023-03-16T06:27:32;10.50;99.90
20744;DHT22;56303;52.160;-0.428;2023-03-16T06:29:59;10.50;99.90
20744;DHT22;56303;52.160;-0.428;2023-03-16T06:32:27;10.70;99.90
20744;DHT22;56303;52.160;-0.428;2023-03-16T06:34:53;10.60;99.90
20744;DHT22;56303;52.160;-0.428;2023-03-16T06:37:20;10.70;99.90
20744;DHT22;56303;52.160;-0.428;2023-03-16T06:39:47;10.70;99.90
20744;DHT22;56303;52.160;-0.428;2023-03-16T06:42:14;10.90;99.90
20744;DHT22;56303;52.160;-0.428;2023-03-16T06:44:41;10.80;99.90
20744;DHT22;56303;52.160;-0.428;2023-03-16T06:47:08;10.90;99.90
20744;DHT22;56303;52.160;-0.428;2023-03-16T06:49:36;10.70;99.90
20744;DHT22;56303;52.160;-0.428;2023-03-16T06:52:03;10.70;99.90
20744;DHT22;56303;52.160;-0.428;2023-03-16T06:54:29;10.70;99.90
20744;DHT22;56303;52.160;-0.428;2023-03-16T06:56:59;10.50;99.90
20744;DHT22;56303;52.160;-0.428;2023-03-16T06:59:27;10.60;99.90
20744;DHT22;56303;52.160;-0.428;2023-03-16T07:01:53;10.60;99.90
20744;DHT22;56303;52.160;-0.428;2023-03-16T07:04:20;10.70;99.90
20744;DHT22;56303;52.160;-0.428;2023-03-16T07:06:47;10.50;99.90
20744;DHT22;56303;52.160;-0.428;2023-03-16T07:09:14;10.60;99.90
20744;DHT22;56303;52.160;-0.428;2023-03-16T07:11:41;10.60;99.90
20744;DHT22;56303;52.160;-0.428;2023-03-16T07:14:08;10.60;99.90
20744;DHT22;56303;52.160;-0.428;2023-03-16T07:16:35;10.60;99.90
20744;DHT22;56303;52.160;-0.428;2023-03-16T07:19:02;10.50;99.90
20744;DHT22;56303;52.160;-0.428;2023-03-16T07:21:29;10.70;99.90
20744;DHT22;56303;52.160;-0.428;2023-03-16T07:23:57;10.70;99.90
20744;DHT22;56303;52.160;-0.428;2023-03-16T07:26:24;10.90;99.90
20744;DHT22;56303;52.160;-0.428;2023-03-16T07:28:51;10.70;99.90
20744;DHT22;56303;52.160;-0.428;2023-03-16T07:31:17;10.60;99.90
20744;DHT22;56303;52.160;-0.428;2023-03-16T07:33:44;10.20;99.90
20744;DHT22;56303;52.160;-0.428;2023-03-16T07:36:11;10.60;99.90
20744;DHT22;56303;52.160;-0.428;2023-03-16T07:38:38;10.50;99.90
20744;DHT22;56303;52.160;-0.428;2023-03-16T07:41:05;10.80;99.90
20744;DHT22;56303;52.160;-0.428;2023-03-16T07:43:32;10.80;99.90
20744;DHT22;56303;52.160;-0.428;2023-03-16T07:46:01;10.80;99.90
20744;DHT22;56303;52.160;-0.428;2023-03-16T07:48:27;10.90;99.90
20744;DHT22;56303;52.160;-0.428;2023-03-16T07:50:54;10.80;99.90
20744;DHT22;56303;52.160;-0.428;2023-03-16T07:53:21;10.70;99.90
20744;DHT22;56303;52.160;-0.428;2023-03-16T07:55:48;10.80;99.90
20744;DHT22;56303;52.160;-0.428;2023-03-16T07:58:15;10.90;99.90
20744;DHT22;56303;52.160;-0.428;2023-03-16T08:00:42;10.70;99.90
20744;DHT22;56303;52.160;-0.428;2023-03-16T08:03:08;10.80;99.90
20744;DHT22;56303;52.160;-0.428;2023-03-16T08:05:35;10.80;99.90
20744;DHT22;56303;52.160;-0.428;2023-03-16T08:08:02;11.10;99.90
20744;DHT22;56303;52.160;-0.428;2023-03-16T08:10:29;11.10;99.90
20744;DHT22;56303;52.160;-0.428;2023-03-16T08:12:57;10.90;99.90
20744;DHT22;56303;52.160;-0.428;2023-03-16T08:15:24;11.00;99.90
20744;DHT22;56303;52.160;-0.428;2023-03-16T08:17:51;10.90;99.90
20744;DHT22;56303;52.160;-0.428;2023-03-16T08:20:18;11.00;99.90
20744;DHT22;56303;52.160;-0.428;2023-03-16T08:22:45;10.90;99.90
20744;DHT22;56303;52.160;-0.428;2023-03-16T08:25:14;11.10;99.90
20744;DHT22;56303;52.160;-0.428;2023-03-16T08:27:40;11.10;99.90
20744;DHT22;56303;52.160;-0.428;2023-03-16T08:30:10;11.10;99.90
20744;DHT22;56303;52.160;-0.428;2023-03-16T08:32:38;11.10;99.90
20744;DHT22;56303;52.160;-0.428;2023-03-16T08:35:11;11.20;99.90
20744;DHT22;56303;52.160;-0.428;2023-03-16T08:37:42;11.10;99.90
20744;DHT22;56303;52.160;-0.428;2023-03-16T08:40:10;11.20;99.90
20744;DHT22;56303;52.160;-0.428;2023-03-16T08:42:39;11.00;99.90
20744;DHT22;56303;52.160;-0.428;2023-03-16T08:45:07;11.20;99.90
20744;DHT22;56303;52.160;-0.428;2023-03-16T08:47:40;11.30;99.90
20744;DHT22;56303;52.160;-0.428;2023-03-16T08:50:08;11.40;99.90
20744;DHT22;56303;52.160;-0.428;2023-03-16T08:52:35;11.40;99.90
20744;DHT22;56303;52.160;-0.428;2023-03-16T08:55:03;11.40;99.90
20744;DHT22;56303;52.160;-0.428;2023-03-16T08:57:33;11.50;99.90
20744;DHT22;56303;52.160;-0.428;2023-03-16T09:00:00;11.40;99.90
20744;DHT22;56303;52.160;-0.428;2023-03-16T09:02:27;11.30;99.90
20744;DHT22;56303;52.160;-0.428;2023-03-16T09:04:53;11.20;99.90
20744;DHT22;56303;52.160;-0.428;2023-03-16T09:07:22;11.20;99.90
20744;DHT22;56303;52.160;-0.428;2023-03-16T09:09:49;11.00;99.90
20744;DHT22;56303;52.160;-0.428;2023-03-16T09:12:16;11.20;99.90
20744;DHT22;56303;52.160;-0.428;2023-03-16T09:14:43;11.20;99.90
20744;DHT22;56303;52.160;-0.428;2023-03-16T09:17:11;11.40;99.90
20744;DHT22;56303;52.160;-0.428;2023-03-16T09:19:38;11.60;99.90
20744;DHT22;56303;52.160;-0.428;2023-03-16T09:22:18;11.70;99.90
20744;DHT22;56303;52.160;-0.428;2023-03-16T09:24:45;11.80;99.90
20744;DHT22;56303;52.160;-0.428;2023-03-16T09:27:14;11.70;99.90
20744;DHT22;56303;52.160;-0.428;2023-03-16T09:29:42;11.70;99.90
20744;DHT22;56303;52.160;-0.428;2023-03-16T09:32:09;11.70;99.90
20744;DHT22;56303;52.160;-0.428;2023-03-16T09:34:35;11.80;99.90
20744;DHT22;56303;52.160;-0.428;2023-03-16T09:37:02;11.50;99.90
20744;DHT22;56303;52.160;-0.428;2023-03-16T09:39:29;11.60;99.90
20744;DHT22;56303;52.160;-0.428;2023-03-16T09:44:38;11.50;99.90
20744;DHT22;56303;52.160;-0.428;2023-03-16T09:47:10;11.70;99.90
20744;DHT22;56303;52.160;-0.428;2023-03-16T09:49:43;12.00;99.90
20744;DHT22;56303;52.160;-0.428;2023-03-16T09:58:00;11.80;99.90
20744;DHT22;56303;52.160;-0.428;2023-03-16T10:00:35;11.70;99.90
20744;DHT22;56303;52.160;-0.428;2023-03-16T10:03:24;11.60;99.90
20744;DHT22;56303;52.160;-0.428;2023-03-16T10:06:04;11.60;99.90
20744;DHT22;56303;52.160;-0.428;2023-03-16T10:08:43;11.80;99.90
20744;DHT22;56303;52.160;-0.428;2023-03-16T10:11:27;11.70;99.90
20744;DHT22;56303;52.160;-0.428;2023-03-16T10:16:36;11.80;99.90
20744;DHT22;56303;52.160;-0.428;2023-03-16T10:19:35;12.10;99.90
20744;DHT22;56303;52.160;-0.428;2023-03-16T10:22:24;12.40;99.90
20744;DHT22;56303;52.160;-0.428;2023-03-16T10:27:30;12.10;99.90
20744;DHT22;56303;52.160;-0.428;2023-03-16T10:29:58;11.90;99.90
20744;DHT22;56303;52.160;-0.428;2023-03-16T10:32:31;12.40;99.90
20744;DHT22;56303;52.160;-0.428;2023-03-16T10:35:06;12.20;99.90
20744;DHT22;56303;52.160;-0.428;2023-03-16T10:37:37;12.30;99.90
20744;DHT22;56303;52.160;-0.428;2023-03-16T10:40:09;12.40;99.90
20744;DHT22;56303;52.160;-0.428;2023-03-16T10:42:38;12.30;99.90
20744;DHT22;56303;52.160;-0.428;2023-03-16T10:45:05;12.50;99.90
20744;DHT22;56303;52.160;-0.428;2023-03-16T10:47:32;12.30;99.90
20744;DHT22;56303;52.160;-0.428;2023-03-16T10:50:11;12.30;99.90
20744;DHT22;56303;52.160;-0.428;2023-03-16T10:52:43;12.20;99.90
20744;DHT22;56303;52.160;-0.428;2023-03-16T10:55:16;12.20;99.90
20744;DHT22;56303;52.160;-0.428;2023-03-16T10:57:52;12.10;99.90
20744;DHT22;56303;52.160;-0.428;2023-03-16T11:00:21;12.20;99.90
20744;DHT22;56303;52.160;-0.428;2023-03-16T11:02:52;12.30;99.90
20744;DHT22;56303;52.160;-0.428;2023-03-16T11:10:38;12.70;99.90
20744;DHT22;56303;52.160;-0.428;2023-03-16T11:13:19;12.40;99.90
20744;DHT22;56303;52.160;-0.428;2023-03-16T11:18:45;12.60;99.90
20744;DHT22;56303;52.160;-0.428;2023-03-16T11:21:33;12.80;99.90
20744;DHT22;56303;52.160;-0.428;2023-03-16T11:24:05;12.90;99.90
20744;DHT22;56303;52.160;-0.428;2023-03-16T11:26:38;12.80;99.90
20744;DHT22;56303;52.160;-0.428;2023-03-16T11:32:04;12.80;99.90
20744;DHT22;56303;52.160;-0.428;2023-03-16T11:34:33;13.00;99.90
20744;DHT22;56303;52.160;-0.428;2023-03-16T11:46:24;13.60;99.90
20744;DHT22;56303;52.160;-0.428;2023-03-16T12:05:31;14.30;99.90
20744;DHT22;56303;52.160;-0.428;2023-03-16T12:08:09;14.80;99.90
20744;DHT22;56303;52.160;-0.428;2023-03-16T12:10:55;15.20;99.90
20744;DHT22;56303;52.160;-0.428;2023-03-16T12:18:53;14.90;99.90
20744;DHT22;56303;52.160;-0.428;2023-03-16T12:21:27;14.80;99.90
20744;DHT22;56303;52.160;-0.428;2023-03-16T12:24:03;14.80;99.90
20744;DHT22;56303;52.160;-0.428;2023-03-16T12:26:35;14.80;99.90
20744;DHT22;56303;52.160;-0.428;2023-03-16T12:34:59;15.20;99.90
20744;DHT22;56303;52.160;-0.428;2023-03-16T12:37:37;15.20;99.90
20744;DHT22;56303;52.160;-0.428;2023-03-16T12:40:16;14.80;99.90
20744;DHT22;56303;52.160;-0.428;2023-03-16T12:46:10;15.00;99.90
20744;DHT22;56303;52.160;-0.428;2023-03-16T12:48:51;14.60;99.90
20744;DHT22;56303;52.160;-0.428;2023-03-16T12:51:19;14.40;99.90
20744;DHT22;56303;52.160;-0.428;2023-03-16T12:53:53;14.60;99.90
20744;DHT22;56303;52.160;-0.428;2023-03-16T12:56:34;14.80;99.90
20744;DHT22;56303;52.160;-0.428;2023-03-16T12:59:04;14.90;99.90
20744;DHT22;56303;52.160;-0.428;2023-03-16T13:01:41;14.80;99.90
20744;DHT22;56303;52.160;-0.428;2023-03-16T13:04:17;14.80;99.90
20744;DHT22;56303;52.160;-0.428;2023-03-16T13:06:48;14.90;99.90
20744;DHT22;56303;52.160;-0.428;2023-03-16T13:09:21;15.00;99.90
20744;DHT22;56303;52.160;-0.428;2023-03-16T13:11:49;14.80;99.90
20744;DHT22;56303;52.160;-0.428;2023-03-16T13:14:38;14.70;99.90
20744;DHT22;56303;52.160;-0.428;2023-03-16T13:23:19;15.00;99.90
20744;DHT22;56303;52.160;-0.428;2023-03-16T13:26:04;15.40;99.90
20744;DHT22;56303;52.160;-0.428;2023-03-16T13:28:37;14.90;99.90
20744;DHT22;56303;52.160;-0.428;2023-03-16T13:31:30;14.70;99.90
20744;DHT22;56303;52.160;-0.428;2023-03-16T13:33:59;15.00;99.90
20744;DHT22;56303;52.160;-0.428;2023-03-16T13:36:27;14.70;99.90
20744;DHT22;56303;52.160;-0.428;2023-03-16T13:39:19;14.90;99.90
20744;DHT22;56303;52.160;-0.428;2023-03-16T13:42:18;14.90;99.90
20744;DHT22;56303;52.160;-0.428;2023-03-16T13:44:46;14.90;99.90
20744;DHT22;56303;52.160;-0.428;2023-03-16T13:47:15;15.00;99.90
20744;DHT22;56303;52.160;-0.428;2023-03-16T13:49:49;15.10;99.90
20744;DHT22;56303;52.160;-0.428;2023-03-16T13:52:33;15.10;99.90
20744;DHT22;56303;52.160;-0.428;2023-03-16T13:55:05;15.30;99.90
20744;DHT22;56303;52.160;-0.428;2023-03-16T13:57:37;14.90;99.90
20744;DHT22;56303;52.160;-0.428;2023-03-16T14:00:19;14.70;99.90
20744;DHT22;56303;52.160;-0.428;2023-03-16T14:02:52;14.90;99.90
20744;DHT22;56303;52.160;-0.428;2023-03-16T14:05:28;15.10;99.90
20744;DHT22;56303;52.160;-0.428;2023-03-16T14:07:56;15.30;99.90
20744;DHT22;56303;52.160;-0.428;2023-03-16T14:10:30;15.10;99.90
20744;DHT22;56303;52.160;-0.428;2023-03-16T14:13:25;15.10;99.90
20744;DHT22;56303;52.160;-0.428;2023-03-16T14:16:00;15.20;99.90
20744;DHT22;56303;52.160;-0.428;2023-03-16T14:21:24;15.20;99.90
20744;DHT22;56303;52.160;-0.428;2023-03-16T14:23:53;15.10;99.90
20744;DHT22;56303;52.160;-0.428;2023-03-16T14:26:22;15.20;99.90
20744;DHT22;56303;52.160;-0.428;2023-03-16T14:29:20;15.00;99.90
20744;DHT22;56303;52.160;-0.428;2023-03-16T14:31:50;15.10;99.90
20744;DHT22;56303;52.160;-0.428;2023-03-16T14:34:33;15.10;99.90
20744;DHT22;56303;52.160;-0.428;2023-03-16T14:37:16;15.20;99.90
20744;DHT22;56303;52.160;-0.428;2023-03-16T14:39:45;15.50;99.90
20744;DHT22;56303;52.160;-0.428;2023-03-16T14:42:27;15.40;99.90
20744;DHT22;56303;52.160;-0.428;2023-03-16T14:45:00;15.40;99.90
20744;DHT22;56303;52.160;-0.428;2023-03-16T14:47:29;14.90;99.90
20744;DHT22;56303;52.160;-0.428;2023-03-16T14:50:04;15.10;99.90
20744;DHT22;56303;52.160;-0.428;2023-03-16T14:52:32;15.30;99.90
20744;DHT22;56303;52.160;-0.428;2023-03-16T14:55:00;15.10;99.90
20744;DHT22;56303;52.160;-0.428;2023-03-16T14:57:29;15.10;99.90
20744;DHT22;56303;52.160;-0.428;2023-03-16T14:59:56;15.00;99.90
20744;DHT22;56303;52.160;-0.428;2023-03-16T15:02:27;15.00;99.90
20744;DHT22;56303;52.160;-0.428;2023-03-16T15:04:55;15.00;99.90
20744;DHT22;56303;52.160;-0.428;2023-03-16T15:07:25;14.70;99.90
20744;DHT22;56303;52.160;-0.428;2023-03-16T15:09:54;14.50;99.90
20744;DHT22;56303;52.160;-0.428;2023-03-16T15:12:22;14.60;99.90
20744;DHT22;56303;52.160;-0.428;2023-03-16T15:14:51;14.80;99.90
20744;DHT22;56303;52.160;-0.428;2023-03-16T15:17:36;14.90;99.90
20744;DHT22;56303;52.160;-0.428;2023-03-16T15:20:03;14.80;99.90
20744;DHT22;56303;52.160;-0.428;2023-03-16T15:22:35;14.80;99.90
20744;DHT22;56303;52.160;-0.428;2023-03-16T15:25:50;14.80;99.90
20744;DHT22;56303;52.160;-0.428;2023-03-16T15:28:17;14.70;99.90
20744;DHT22;56303;52.160;-0.428;2023-03-16T15:30:47;14.80;99.90
20744;DHT22;56303;52.160;-0.428;2023-03-16T15:33:14;15.00;99.90
20744;DHT22;56303;52.160;-0.428;2023-03-16T15:35:43;15.20;99.90
20744;DHT22;56303;52.160;-0.428;2023-03-16T15:38:21;15.00;99.90
20744;DHT22;56303;52.160;-0.428;2023-03-16T15:40:49;15.00;99.90
20744;DHT22;56303;52.160;-0.428;2023-03-16T15:43:19;15.00;99.90
20744;DHT22;56303;52.160;-0.428;2023-03-16T15:45:46;14.60;99.90
20744;DHT22;56303;52.160;-0.428;2023-03-16T15:48:14;14.60;99.90
20744;DHT22;56303;52.160;-0.428;2023-03-16T15:50:49;14.70;99.90
20744;DHT22;56303;52.160;-0.428;2023-03-16T15:53:24;14.80;99.90
20744;DHT22;56303;52.160;-0.428;2023-03-16T15:56:09;14.50;99.90
20744;DHT22;56303;52.160;-0.428;2023-03-16T15:58:36;14.70;99.90
20744;DHT22;56303;52.160;-0.428;2023-03-16T16:01:05;14.80;99.90
20744;DHT22;56303;52.160;-0.428;2023-03-16T16:03:34;14.90;99.90
20744;DHT22;56303;52.160;-0.428;2023-03-16T16:06:01;14.90;99.90
20744;DHT22;56303;52.160;-0.428;2023-03-16T16:08:28;14.90;99.90
20744;DHT22;56303;52.160;-0.428;2023-03-16T16:10:55;14.70;99.90
20744;DHT22;56303;52.160;-0.428;2023-03-16T16:13:25;14.80;99.90
20744;DHT22;56303;52.160;-0.428;2023-03-16T16:16:13;14.70;99.90
20744;DHT22;56303;52.160;-0.428;2023-03-16T16:18:40;14.50;99.90
20744;DHT22;56303;52.160;-0.428;2023-03-16T16:21:14;14.50;99.90
20744;DHT22;56303;52.160;-0.428;2023-03-16T16:23:42;14.20;99.90
20744;DHT22;56303;52.160;-0.428;2023-03-16T16:26:36;14.20;99.90
20744;DHT22;56303;52.160;-0.428;2023-03-16T16:29:21;14.10;99.90
20744;DHT22;56303;52.160;-0.428;2023-03-16T16:31:48;14.30;99.90
20744;DHT22;56303;52.160;-0.428;2023-03-16T16:34:18;14.40;99.90
20744;DHT22;56303;52.160;-0.428;2023-03-16T16:36:47;14.40;99.90
20744;DHT22;56303;52.160;-0.428;2023-03-16T16:39:14;14.30;99.90
20744;DHT22;56303;52.160;-0.428;2023-03-16T16:41:42;14.10;99.90
20744;DHT22;56303;52.160;-0.428;2023-03-16T16:44:18;13.90;99.90
20744;DHT22;56303;52.160;-0.428;2023-03-16T16:46:47;14.00;99.90
20744;DHT22;56303;52.160;-0.428;2023-03-16T16:49:26;14.00;99.90
20744;DHT22;56303;52.160;-0.428;2023-03-16T16:51:53;13.80;99.90
20744;DHT22;56303;52.160;-0.428;2023-03-16T16:54:26;13.90;99.90
20744;DHT22;56303;52.160;-0.428;2023-03-16T16:56:55;14.00;99.90
20744;DHT22;56303;52.160;-0.428;2023-03-16T16:59:24;14.10;99.90
20744;DHT22;56303;52.160;-0.428;2023-03-16T17:01:52;14.20;99.90